Flight Track Log - Related Links

Times and Time Zones

All times are in EDT time to prevent confusion due to time zone crossing. See the GJS3618 flight status page for this flight to view local times or setup timezone preferences in your user account.

Time Position Orientation Groundspeed Altitude Reporting Facility
EDT Latitude Longitude Course Direction KTS MPH feet Rate Location/Type
Sat 03:09:15 PM 39.8833 -104.6000 79° East 180 207 6,700  Level Denver TRACON
Sat 03:10:09 PM 39.8833 -104.5167 90° East 232 267 8,000 1,545 Climbing Denver TRACON
Sat 03:12:00 PM 39.9633 -104.0647 73° East  Level FlightAware Approximate
Sat 03:12:33 PM 39.9450 -104.2731 72° East 334 384 11,800  Level Denver Center
Sat 03:13:00 PM 39.9860 -103.9147 79° East  Level FlightAware Approximate
Sat 03:13:34 PM 39.9728 -104.1444 74° East 367 422 12,600  Level Denver Center
Sat 03:14:00 PM 40.0169 -103.7654 79° East  Level FlightAware Approximate
Sat 03:14:36 PM 39.9886 -104.0006 82° East 376 433 14,300  Level Denver Center
Sat 03:15:38 PM 40.0033 -103.8672 82° East 372 428 17,000 2,293 Climbing Denver Center
Sat 03:16:39 PM 40.0275 -103.7239 78° East 368 423 19,000 1,659 Climbing Denver Center
Sat 03:17:41 PM 40.0486 -103.6028 77° East 380 437 20,400 1,463 Climbing Denver Center
Sat 03:18:42 PM 40.0722 -103.4597 78° East 397 457 22,000 1,463 Climbing Denver Center
Sat 03:19:44 PM 40.0956 -103.3136 78° East 407 468 23,400 1,317 Climbing Denver Center
Sat 03:20:45 PM 40.1183 -103.1633 79° East 418 481 24,700 1,366 Climbing Denver Center
Sat 03:21:47 PM 40.1481 -102.9875 77° East 422 486 26,200 1,220 Climbing Denver Center
Sat 03:22:48 PM 40.1711 -102.8331 79° East 429 494 27,200 976 Climbing Denver Center
Sat 03:23:50 PM 40.1967 -102.6747 78° East 438 504 28,200 976 Climbing Denver Center
Sat 03:24:51 PM 40.2203 -102.5144 79° East 443 510 29,200 836 Climbing Denver Center
Sat 03:25:52 PM 40.2453 -102.3617 78° East 449 517 29,900 585 Climbing Denver Center
Sat 03:26:54 PM 40.2722 -102.1758 79° East 465 535 30,400 488 Climbing Denver Center
Sat 03:27:55 PM 40.2961 -102.0131 79° East 473 544 30,900 537 Climbing Denver Center
Sat 03:28:57 PM 40.3269 -101.8217 78° East 480 552 31,500 537 Climbing Denver Center
Sat 03:29:58 PM 40.3492 -101.6533 80° East 489 563 32,000 439 Climbing Denver Center
Sat 03:31:00 PM 40.3736 -101.4869 79° East 487 560 32,400 537 Climbing Denver Center
Sat 03:32:01 PM 40.4100 -101.2925 76° East 493 567 33,100 732 Climbing Denver Center
Sat 03:33:03 PM 40.4450 -101.1286 74° East 490 564 33,900 878 Climbing Denver Center
Sat 03:34:04 PM 40.4839 -100.9381 75° East 488 562 34,900 541 Climbing Denver Center
Sat 03:35:05 PM 40.5158 -100.7767 75° East 483 556 35,000 49 Climbing Denver Center
Sat 03:36:07 PM 40.5539 -100.5861 75° East 489 563 35,000  Level Denver Center
Sat 03:37:08 PM 40.5864 -100.4228 75° East 488 562 35,000  Level Denver Center
Sat 03:38:10 PM 40.6192 -100.2597 75° East 486 559 35,000  Level Denver Center
Sat 03:39:11 PM 40.6567 -100.0681 75° East 486 559 35,000  Level Denver Center
Sat 03:40:12 PM 40.6892 -99.9025 75° East 490 564 35,000  Level Denver Center
Sat 03:41:14 PM 40.7225 -99.7311 76° East 488 562 35,000  Level Denver Center
Sat 03:42:15 PM 40.7558 -99.5561 76° East 492 566 35,000  Level Denver Center
Sat 03:43:17 PM 40.7947 -99.3453 76° East 493 567 35,000  Level Denver Center
Sat 03:44:18 PM 40.8278 -99.1692 76° East 496 571 35,000  Level Denver Center
Sat 03:45:20 PM 40.8586 -99.0061 76° East 500 575 35,000  Level Denver Center
Sat 03:46:21 PM 40.8939 -98.8083 77° East 497 572 35,000  Level Denver Center
Sat 03:47:22 PM 40.9250 -98.6417 76° East 499 574 35,000  Level Denver Center
Sat 03:48:24 PM 40.9575 -98.4678 76° East 496 571 35,000  Level Denver Center
Sat 03:49:39 PM 41.0039 -98.2217 76° East 495 570 35,000  Level Minneapolis Center
Sat 03:50:40 PM 41.0431 -98.0469 73° East 496 571 35,000  Level Minneapolis Center
Sat 03:51:41 PM 41.0814 -97.8717 74° East 497 572 35,000  Level Minneapolis Center
Sat 03:52:43 PM 41.1197 -97.6969 74° East 495 570 35,000  Level Minneapolis Center
Sat 03:53:44 PM 41.1575 -97.5206 74° East 497 572 35,000  Level Minneapolis Center
Sat 03:54:45 PM 41.1997 -97.3278 74° East 497 572 35,000  Level Minneapolis Center
Sat 03:55:47 PM 41.2369 -97.1519 74° East 496 571 35,000  Level Minneapolis Center
Sat 03:56:48 PM 41.2742 -96.9744 74° East 498 573 35,000  Level Minneapolis Center
Sat 03:57:49 PM 41.3119 -96.7975 74° East 497 572 35,000  Level Minneapolis Center
Sat 03:58:50 PM 41.3486 -96.6200 75° East 497 572 35,000  Level Minneapolis Center
Sat 03:59:52 PM 41.3858 -96.4442 74° East 493 567 35,000  Level Minneapolis Center
Sat 04:00:53 PM 41.4247 -96.2494 75° East 495 570 35,000  Level Minneapolis Center
Sat 04:01:54 PM 41.4606 -96.0717 75° East 496 571 35,000  Level Minneapolis Center
Sat 04:02:56 PM 41.4953 -95.8964 75° East 491 565 35,000  Level Minneapolis Center
Sat 04:03:57 PM 41.5311 -95.7183 75° East 495 570 35,000  Level Minneapolis Center
Sat 04:04:58 PM 41.5644 -95.5464 75° East 492 566 35,000  Level Minneapolis Center
Sat 04:06:00 PM 41.5992 -95.3692 75° East 493 567 35,000  Level Minneapolis Center
Sat 04:07:01 PM 41.6347 -95.1897 75° East 499 574 35,000  Level Minneapolis Center
Sat 04:08:03 PM 41.6750 -94.9761 76° East 494 568 35,000  Level Minneapolis Center
Sat 04:09:04 PM 41.7081 -94.7956 76° East 500 575 35,000  Level Minneapolis Center
Sat 04:10:05 PM 41.7428 -94.6164 75° East 498 573 35,000  Level Minneapolis Center
Sat 04:11:07 PM 41.7756 -94.4381 76° East 494 568 35,000  Level Minneapolis Center
Sat 04:12:08 PM 41.8100 -94.2583 76° East 497 572 35,000  Level Minneapolis Center
Sat 04:13:10 PM 41.8417 -94.0789 77° East 497 572 35,000  Level Minneapolis Center
Sat 04:14:11 PM 41.8753 -93.8981 76° East 498 573 35,000  Level Minneapolis Center
Sat 04:15:13 PM 41.9094 -93.7086 76° East 499 574 35,000  Level Minneapolis Center
Sat 04:16:14 PM 41.9408 -93.5292 77° East 498 573 35,000  Level Minneapolis Center
Sat 04:17:16 PM 41.9789 -93.3258 76° East 502 578 35,000  Level Minneapolis Center
Sat 04:18:17 PM 42.0117 -93.1447 76° East 501 577 35,000  Level Minneapolis Center
Sat 04:19:19 PM 42.0450 -92.9622 76° East 506 582 35,000  Level Minneapolis Center
Sat 04:20:21 PM 42.0781 -92.7803 76° East 506 582 35,000  Level Minneapolis Center
Sat 04:21:23 PM 42.1111 -92.5981 76° East 506 582 35,000  Level Minneapolis Center
Sat 04:22:24 PM 42.1500 -92.3747 77° East 512 589 35,000  Level Minneapolis Center
Sat 04:23:26 PM 42.1825 -92.1900 77° East 513 590 35,000  Level Minneapolis Center
Sat 04:24:27 PM 42.2136 -92.0053 77° East 512 589 35,000  Level Minneapolis Center
Sat 04:25:29 PM 42.2456 -91.8192 77° East 515 593 35,000  Level Minneapolis Center
Sat 04:26:31 PM 42.2767 -91.6336 77° East 514 592 35,000  Level Minneapolis Center
Sat 04:27:32 PM 42.3081 -91.4478 77° East 516 594 35,000  Level Minneapolis Center
Sat 04:28:34 PM 42.3447 -91.2233 77° East 518 596 35,000  Level Minneapolis Center
Sat 04:29:36 PM 42.3753 -91.0339 78° East 522 601 35,000  Level Minneapolis Center
Sat 04:30:51 PM 42.4114 -90.8114 78° East 518 596 35,000  Level Chicago Center
Sat 04:31:53 PM 42.4414 -90.6239 78° East 517 595 35,000  Level Chicago Center
Sat 04:32:55 PM 42.4761 -90.3964 78° East 520 598 35,000  Level Chicago Center
Sat 04:33:57 PM 42.5053 -90.2075 78° East 518 596 35,000  Level Chicago Center
Sat 04:34:58 PM 42.5353 -90.0186 78° East 519 597 35,000  Level Chicago Center
Sat 04:36:00 PM 42.5633 -89.8314 78° East 517 595 35,000  Level Chicago Center
Sat 04:37:02 PM 42.5975 -89.6086 78° East 517 595 35,000  Level Chicago Center
Sat 04:38:04 PM 42.6253 -89.4156 79° East 522 601 35,000  Level Chicago Center
Sat 04:39:05 PM 42.6528 -89.2228 79° East 521 600 35,000  Level Chicago Center
Sat 04:40:07 PM 42.6819 -89.0297 78° East 522 601 35,000  Level Chicago Center
Sat 04:41:09 PM 42.7094 -88.8358 79° East 522 601 35,000  Level Chicago Center
Sat 04:42:11 PM 42.7408 -88.6092 79° East 524 603 35,000  Level Chicago Center
Sat 04:43:12 PM 42.7681 -88.4147 79° East 525 604 35,000  Level Chicago Center
Sat 04:44:14 PM 42.7953 -88.2203 79° East 525 604 35,000  Level Chicago Center
Sat 04:45:16 PM 42.8214 -88.0261 80° East 525 604 35,000  Level Chicago Center
Sat 04:46:18 PM 42.8464 -87.8308 80° East 525 604 35,000  Level Chicago Center
Sat 04:47:19 PM 42.8728 -87.6333 80° East 530 610 35,000  Level Chicago Center
Sat 04:48:21 PM 42.9017 -87.4047 80° East 527 606 35,000  Level Chicago Center
Sat 04:49:23 PM 42.9256 -87.2247 80° East 528 608 35,000  Level Chicago Center
Sat 04:50:24 PM 42.9503 -87.0283 80° East 527 606 35,000  Level Chicago Center
Sat 04:51:26 PM 42.9753 -86.8331 80° East 524 603 35,000  Level Chicago Center
Sat 04:52:28 PM 42.9986 -86.6381 81° East 521 600 35,000  Level Chicago Center
Sat 04:53:29 PM 43.0269 -86.4044 81° East 521 600 35,000  Level Chicago Center
Sat 04:54:31 PM 43.0500 -86.2097 81° East 520 598 35,000  Level Chicago Center
Sat 04:55:33 PM 43.0744 -86.0078 81° East 519 597 35,000  Level Chicago Center
Sat 04:56:34 PM 43.0964 -85.8022 82° East 521 600 35,000  Level Chicago Center
Sat 04:57:36 PM 43.1189 -85.6047 81° East 524 603 35,000  Level Chicago Center
Sat 04:58:38 PM 43.1408 -85.4086 81° East 522 601 35,000  Level Chicago Center
Sat 04:59:40 PM 43.1625 -85.2128 81° East 522 601 35,000  Level Chicago Center
Sat 05:00:45 PM 43.1822 -84.9997 83° East 521 600 35,000  Level Cleveland Center
Sat 05:01:45 PM 43.2042 -84.8047 81° East 521 600 35,000  Level Cleveland Center
Sat 05:02:45 PM 43.2239 -84.6064 82° East 521 600 35,000  Level Cleveland Center
Sat 05:03:45 PM 43.2411 -84.4050 83° East 521 600 35,000  Level Cleveland Center
Sat 05:04:45 PM 43.2456 -84.2031 88° East 526 605 35,000  Level Cleveland Center
Sat 05:05:45 PM 43.2453 -84.0006 90° East 526 605 35,000  Level Cleveland Center
Sat 05:06:45 PM 43.2497 -83.7783 88° East 526 605 35,000  Level Cleveland Center
Sat 05:07:45 PM 43.2508 -83.5789 89° East 526 605 35,000 -400 Level Cleveland Center
Sat 05:08:45 PM 43.2517 -83.3767 90° East 531 611 34,200 -1,250 Descending Cleveland Center
Sat 05:09:45 PM 43.2522 -83.1686 90° East 536 617 32,500 -1,650 Descending Cleveland Center
Sat 05:10:45 PM 43.2528 -82.9603 90° East 536 617 30,900 -1,700 Descending Cleveland Center
Sat 05:11:45 PM 43.2544 -82.7581 89° East 536 617 29,100 -950 Descending Cleveland Center
Sat 05:12:45 PM 43.2706 -82.5647 83° East 519 597 29,000 -65 Descending Cleveland Center
Sat 05:13:17 PM 43.2667 -82.4500 93° East 500 575 29,000  Level Toronto Center
Sat 05:14:17 PM 43.2833 -82.2667 83° East 500 575 29,000  Level Toronto Center
Sat 05:15:17 PM 43.3000 -82.0833 83° East 490 564 29,000  Level Toronto Center
Sat 05:16:17 PM 43.2500 -81.9167 112° Southeast 450 518 29,000  Level Toronto Center
Sat 05:17:17 PM 43.1833 -81.8000 128° Southeast 440 506 29,000 -150 Level Toronto Center
Sat 05:18:17 PM 43.1000 -81.6667 131° Southeast 450 518 28,700 -700 Descending Toronto Center
Sat 05:19:17 PM 43.1167 -81.5000 82° East 460 529 27,600 -1,200 Descending Toronto Center
Sat 05:20:17 PM 43.1500 -81.3167 76° East 450 518 26,300 -1,250 Descending Toronto Center
Sat 05:21:17 PM 43.2000 -81.1833 63° Northeast 430 495 25,100 -1,400 Descending Toronto Center
Sat 05:22:17 PM 43.2333 -81.0500 71° East 430 495 23,500 -1,950 Descending Toronto Center
Sat 05:23:17 PM 43.2833 -80.9000 65° Northeast 430 495 21,200 -2,200 Descending Toronto Center
Sat 05:24:17 PM 43.3333 -80.7500 65° Northeast 410 472 19,100 -2,000 Descending Toronto Center
Sat 05:25:17 PM 43.3833 -80.6000 65° Northeast 390 449 17,200 -1,950 Descending Toronto Center
Sat 05:26:17 PM 43.4167 -80.4833 68° East 380 437 15,200 -1,950 Descending Toronto Center
Sat 05:27:17 PM 43.4500 -80.3500 71° East 360 414 13,300 -1,350 Descending Toronto Center
Sat 05:28:17 PM 43.4833 -80.2333 68° East 340 391 12,500 -900 Descending Toronto Center
Sat 05:29:17 PM 43.5167 -80.1167 68° East 320 368 11,500 -1,100 Descending Toronto Center
Sat 05:30:17 PM 43.5500 -80.0000 68° East 310 357 10,300 -1,400 Descending Toronto Center
Sat 05:31:17 PM 43.5667 -79.8833 79° East 290 334 8,700 -1,150 Descending Toronto Center
Sat 05:32:17 PM 43.6000 -79.8000 61° Northeast 290 334 8,000 -900 Descending Toronto Center
Sat 05:33:17 PM 43.6000 -79.7000 90° East 270 311 6,900 -1,200 Descending Toronto Center
Sat 05:34:17 PM 43.5500 -79.6333 136° Southeast 250 288 5,600 -1,350 Descending Toronto Center
Sat 05:35:17 PM 43.5000 -79.5667 136° Southeast 230 265 4,200 -1,200 Descending Toronto Center
Sat 05:36:17 PM 43.5167 -79.5000 71° East 230 265 3,200 -600 Descending Toronto Center
Sat 05:37:17 PM 43.5500 -79.4667 36° Northeast 170 196 3,000 -250 Descending Toronto Center
Sat 05:38:17 PM 43.5833 -79.5167 313° West 150 173 2,700 -300 Descending Toronto Center

Login

Don't have an account? Register now (free) for customized features, flight alerts, and more!